Time;durP1;ratioP1;P1;durP2;ratioP2;P2;SDS_P1;SDS_P2;PMS_P1;PMS_P2;Temp;Humidity;BMP_temperature;BMP_pressure;BME280_temperature;BME280_humidity;BME280_pressure;Samples;Min_cycle;Max_cycle;Signal;HPM_P1;HPM_P2
2023/04/26 00:01:59;;;;;;;;;4.75;4.75;;;;;19.35;40.84;101341.19;4999086;28;45380;-54
2023/04/26 00:04:27;;;;;;;;;6.00;6.00;;;;;19.33;40.33;101344.81;4999303;28;45341;-57
2023/04/26 00:06:53;;;;;;;;;7.50;5.00;;;;;19.38;40.36;101353.38;4999056;28;47257;-54
2023/04/26 00:09:18;;;;;;;;;7.00;5.25;;;;;19.37;40.74;101360.38;4998946;28;45557;-47
2023/04/26 00:11:44;;;;;;;;;5.00;5.00;;;;;19.36;40.35;101353.41;4999097;28;45349;-55
2023/04/26 00:14:10;;;;;;;;;5.00;5.00;;;;;19.37;40.41;101355.13;4999597;28;45515;-54
2023/04/26 00:16:35;;;;;;;;;5.50;5.50;;;;;19.37;40.48;101343.78;4998919;28;46388;-52
2023/04/26 00:19:01;;;;;;;;;5.25;5.00;;;;;19.34;40.80;101338.63;4999029;28;45341;-48
2023/04/26 00:21:27;;;;;;;;;3.75;3.25;;;;;19.31;40.75;101329.97;4999108;28;45321;-58
2023/04/26 00:23:52;;;;;;;;;4.00;4.00;;;;;19.36;40.64;101340.28;4999095;28;45494;-52
2023/04/26 00:26:18;;;;;;;;;5.75;5.75;;;;;19.36;40.79;101332.38;4997755;28;45455;-56
2023/04/26 00:28:43;;;;;;;;;5.00;5.00;;;;;19.35;40.46;101330.69;4998724;28;45326;-52
2023/04/26 00:31:16;;;;;;;;;6.00;5.00;;;;;19.36;40.46;101327.13;5013753;28;62958;-56
2023/04/26 00:33:41;;;;;;;;;7.50;5.00;;;;;19.34;40.27;101320.25;4999284;28;45221;-56
2023/04/26 00:36:07;;;;;;;;;8.75;5.00;;;;;19.30;40.53;101317.72;4997189;28;47399;-56
2023/04/26 00:38:32;;;;;;;;;6.00;4.75;;;;;19.35;40.46;101317.53;4998614;28;45450;-52
2023/04/26 00:40:57;;;;;;;;;5.50;5.50;;;;;19.33;40.78;101322.03;4998827;28;45430;-54
2023/04/26 00:43:23;;;;;;;;;6.00;6.00;;;;;19.34;40.63;101317.63;4998224;28;48491;-55
2023/04/26 00:45:48;;;;;;;;;6.00;4.33;;;;;19.34;40.85;101314.97;4997512;28;73147;-58
2023/04/26 00:48:14;;;;;;;;;6.00;4.00;;;;;19.30;40.88;101306.38;4998364;28;45854;-46
2023/04/26 00:50:40;;;;;;;;;5.75;3.75;;;;;19.30;40.80;101301.97;4998921;28;45454;-55
2023/04/26 00:53:07;;;;;;;;;5.50;5.50;;;;;19.33;40.64;101306.25;4998795;28;45472;-57
2023/04/26 00:55:33;;;;;;;;;4.00;4.00;;;;;19.33;40.87;101311.50;4998163;28;45245;-54
2023/04/26 00:57:58;;;;;;;;;5.00;5.00;;;;;19.34;40.58;101309.72;4998268;28;45317;-56
2023/04/26 01:00:24;;;;;;;;;7.50;5.00;;;;;19.33;41.00;101306.25;4998408;28;45344;-53
2023/04/26 01:02:50;;;;;;;;;5.00;5.00;;;;;19.33;40.85;101300.13;4998362;28;45605;-55
2023/04/26 01:05:16;;;;;;;;;6.00;6.00;;;;;19.32;40.93;101294.03;4998118;28;46810;-53
2023/04/26 01:07:41;;;;;;;;;6.00;4.75;;;;;19.29;41.12;101288.91;4998359;28;45282;-45
2023/04/26 01:10:08;;;;;;;;;8.00;5.50;;;;;19.33;40.98;101293.13;4998228;28;45433;-57
2023/04/26 01:12:35;;;;;;;;;4.75;4.75;;;;;19.32;40.52;101286.16;4998281;28;45473;-55
2023/04/26 01:15:01;;;;;;;;;6.25;4.50;;;;;19.28;41.09;101284.56;4997900;28;46086;-57
2023/04/26 01:17:27;;;;;;;;;7.25;6.00;;;;;19.29;40.67;101286.28;4997944;28;45468;-57
2023/04/26 01:19:52;;;;;;;;;7.75;6.00;;;;;19.30;40.69;101287.97;4996912;28;45372;-57
2023/04/26 01:22:17;;;;;;;;;4.00;4.00;;;;;19.30;41.07;101291.44;4998207;28;45622;-54
2023/04/26 01:24:47;;;;;;;;;9.25;7.00;;;;;19.33;41.05;101289.63;5013311;28;48208;-55
2023/04/26 01:27:12;;;;;;;;;6.00;5.00;;;;;19.31;41.11;101281.81;4998032;28;46008;-55
2023/04/26 01:29:37;;;;;;;;;5.00;5.00;;;;;19.30;41.04;101269.59;4997958;28;45455;-55
2023/04/26 01:32:03;;;;;;;;;3.25;3.25;;;;;19.29;40.96;101268.72;4998027;28;45414;-52
2023/04/26 01:34:28;;;;;;;;;5.00;5.00;;;;;19.25;40.67;101261.91;4997597;28;46297;-53
2023/04/26 01:36:54;;;;;;;;;9.00;6.00;;;;;19.29;40.54;101267.88;5012718;28;45466;-54
2023/04/26 01:39:19;;;;;;;;;5.50;5.50;;;;;19.29;40.95;101267.88;4997930;28;45279;-53
2023/04/26 01:41:44;;;;;;;;;6.50;5.25;;;;;19.29;40.88;101273.13;4998240;28;45594;-56
2023/04/26 01:44:10;;;;;;;;;5.50;5.50;;;;;19.23;40.88;101268.16;4997509;28;46538;-52
2023/04/26 01:46:35;;;;;;;;;6.25;5.75;;;;;19.24;40.93;101257.56;4997583;28;45390;-55
2023/04/26 01:49:01;;;;;;;;;6.00;6.00;;;;;19.27;40.89;101269.72;4996205;28;45522;-51
2023/04/26 01:51:26;;;;;;;;;5.00;5.00;;;;;19.27;40.94;101267.97;4997722;28;45474;-55
2023/04/26 01:53:51;;;;;;;;;5.50;5.50;;;;;19.28;40.80;101274.06;4996135;28;46005;-51
2023/04/26 01:56:18;;;;;;;;;6.00;4.00;;;;;19.27;40.76;101274.97;4996488;28;45321;-51
2023/04/26 01:58:43;;;;;;;;;3.75;3.25;;;;;19.22;40.78;101269.06;4997719;28;45357;-56
2023/04/26 02:01:10;;;;;;;;;7.25;6.25;;;;;19.22;40.50;101272.53;4997597;28;45530;-51
2023/04/26 02:03:35;;;;;;;;;5.50;5.50;;;;;19.22;40.47;101269.06;4995925;28;46295;-55
2023/04/26 02:06:01;;;;;;;;;6.25;5.75;;;;;19.26;40.71;101268.88;4997126;28;45454;-48
2023/04/26 02:08:26;;;;;;;;;4.50;4.50;;;;;19.25;40.76;101256.66;4997258;28;45383;-54
2023/04/26 02:10:52;;;;;;;;;4.00;4.00;;;;;19.21;40.53;101241.09;4997075;28;47092;-54
2023/04/26 02:13:18;;;;;;;;;6.00;6.00;;;;;19.27;40.19;101253.94;5012710;28;45766;-52
2023/04/26 02:15:47;;;;;;;;;5.00;5.00;;;;;19.26;40.50;101258.34;4997372;28;45932;-47
2023/04/26 02:18:12;;;;;;;;;10.25;5.25;;;;;19.25;40.62;101261.91;4997105;28;45297;-56
2023/04/26 02:20:44;;;;;;;;;7.75;6.00;;;;;19.21;40.66;101247.19;4997392;28;45521;-53
2023/04/26 02:23:11;;;;;;;;;4.25;4.25;;;;;19.22;40.63;101256.78;4996972;28;46187;-57
2023/04/26 02:25:36;;;;;;;;;5.50;5.25;;;;;19.25;40.36;101261.03;4997009;28;45296;-58
2023/04/26 02:28:03;;;;;;;;;4.75;3.50;;;;;19.23;40.48;101262.91;4997031;28;45315;-53
2023/04/26 02:30:29;;;;;;;;;5.00;5.00;;;;;19.18;40.54;101260.47;4997253;28;45196;-54
2023/04/26 02:32:54;;;;;;;;;6.00;6.00;;;;;19.22;40.25;101269.91;4996754;28;46285;-55
2023/04/26 02:35:20;;;;;;;;;6.75;4.00;;;;;19.21;40.12;101272.63;4997278;28;45859;-56
2023/04/26 02:37:47;;;;;;;;;6.00;5.00;;;;;19.21;40.11;101267.34;4997335;28;45237;-56
2023/04/26 02:40:22;;;;;;;;;6.50;5.25;;;;;19.21;40.40;101264.72;4997159;28;45479;-55
2023/04/26 02:42:47;;;;;;;;;5.00;5.00;;;;;19.19;40.42;101261.31;4996956;28;45434;-52
2023/04/26 02:45:13;;;;;;;;;6.00;5.00;;;;;19.14;39.93;101243.97;4996628;28;45302;-53
2023/04/26 02:47:38;;;;;;;;;5.00;5.00;;;;;19.19;40.23;101254.25;4996673;28;45412;-56
2023/04/26 02:50:08;;;;;;;;;6.00;6.00;;;;;19.18;40.00;101251.72;4996155;28;45356;-52
2023/04/26 02:52:34;;;;;;;;;4.75;4.75;;;;;19.18;40.03;101255.22;4996421;28;46101;-56
2023/04/26 02:55:01;;;;;;;;;7.00;5.00;;;;;19.17;40.26;101248.25;4996466;28;45272;-52
2023/04/26 02:57:26;;;;;;;;;4.75;4.75;;;;;19.17;40.21;101243.00;4996671;28;45308;-53
2023/04/26 02:59:52;;;;;;;;;7.25;5.00;;;;;19.13;40.29;101239.63;4996624;28;45466;-48
2023/04/26 03:02:17;;;;;;;;;4.25;4.25;;;;;19.14;39.89;101249.22;4996487;28;46344;-53
2023/04/26 03:04:42;;;;;;;;;4.75;4.75;;;;;19.15;39.91;101253.56;4996262;28;45313;-55
2023/04/26 03:07:08;;;;;;;;;4.00;4.00;;;;;19.16;40.08;101252.63;5008155;28;45361;-55
2023/04/26 03:09:33;;;;;;;;;7.75;5.00;;;;;19.17;39.91;101250.88;5016282;28;45568;-52
2023/04/26 03:11:58;;;;;;;;;6.00;4.50;;;;;19.11;39.74;101243.25;5015965;28;46113;-54
2023/04/26 03:14:24;;;;;;;;;6.00;4.75;;;;;19.13;39.83;101241.41;5016069;28;45531;-54
2023/04/26 03:16:49;;;;;;;;;5.75;5.75;;;;;19.18;40.01;101246.47;5015247;28;45408;-56
2023/04/26 03:19:15;;;;;;;;;5.75;4.75;;;;;19.17;39.68;101243.00;5016242;28;45614;-56
2023/04/26 03:21:40;;;;;;;;;5.50;5.25;;;;;19.15;39.58;101235.16;5015860;28;46980;-54
2023/04/26 03:24:06;;;;;;;;;4.50;4.00;;;;;19.12;39.69;101235.31;5015849;28;45268;-52
2023/04/26 03:26:31;;;;;;;;;3.50;3.50;;;;;19.16;39.48;101241.28;5014699;28;45384;-55
2023/04/26 03:28:57;;;;;;;;;4.25;4.25;;;;;19.14;39.48;101240.50;5031177;28;45354;-52
2023/04/26 03:31:22;;;;;;;;;5.75;4.50;;;;;19.13;39.45;101241.41;5016132;28;46101;-48
2023/04/26 03:33:48;;;;;;;;;5.00;5.00;;;;;19.15;39.84;101239.56;5016166;28;45478;-54
2023/04/26 03:36:13;;;;;;;;;5.25;4.00;;;;;19.15;39.45;101245.66;5016039;28;45318;-53
2023/04/26 03:38:38;;;;;;;;;5.50;5.00;;;;;19.15;39.60;101250.91;5014778;28;45456;-55
2023/04/26 03:41:04;;;;;;;;;4.00;4.00;;;;;19.14;39.46;101246.59;5014911;28;68766;-53
2023/04/26 03:43:29;;;;;;;;;6.33;4.00;;;;;19.14;39.45;101237.88;5015078;28;57857;-56
2023/04/26 03:45:54;;;;;;;;;6.25;4.00;;;;;19.13;39.36;101241.41;5015714;28;45465;-52
2023/04/26 03:48:20;;;;;;;;;4.00;4.00;;;;;19.14;39.65;101251.00;5015216;28;62319;-47
2023/04/26 03:50:45;;;;;;;;;4.50;4.50;;;;;19.13;39.60;101237.00;5015404;28;46130;-48
2023/04/26 03:53:11;;;;;;;;;5.00;4.00;;;;;19.07;39.41;101232.00;5015534;28;45187;-48
2023/04/26 03:55:36;;;;;;;;;4.50;4.50;;;;;19.11;39.50;101233.59;5015717;28;45233;-54
2023/04/26 03:58:06;;;;;;;;;4.00;4.00;;;;;19.13;39.60;101233.53;5015680;28;45426;-49
2023/04/26 04:00:41;;;;;;;;;4.00;4.00;;;;;19.11;39.15;101232.72;5016437;28;46127;-47
2023/04/26 04:03:06;;;;;;;;;4.50;4.50;;;;;19.11;39.30;101233.59;5017524;28;45491;-46
2023/04/26 04:05:32;;;;;;;;;7.25;5.00;;;;;19.09;39.09;101230.19;5018992;28;45378;-50
2023/04/26 04:07:57;;;;;;;;;5.25;5.00;;;;;19.11;38.89;101230.97;5017497;28;45666;-55
2023/04/26 04:10:22;;;;;;;;;5.25;5.00;;;;;19.07;39.34;101234.63;5019056;28;45357;-53
2023/04/26 04:12:49;;;;;;;;;5.00;3.00;;;;;19.09;39.02;101224.94;5018513;28;45416;-56
2023/04/26 04:15:15;;;;;;;;;5.25;5.00;;;;;19.11;39.20;101238.84;5018964;28;45181;-51
2023/04/26 04:17:40;;;;;;;;;3.00;3.00;;;;;19.10;39.10;101241.53;5017772;28;45590;-53
2023/04/26 04:20:06;;;;;;;;;3.00;3.00;;;;;19.09;39.19;101240.69;5017711;28;72639;-59
2023/04/26 04:22:32;;;;;;;;;5.25;4.00;;;;;19.10;39.00;101242.41;5018649;28;45464;-53
2023/04/26 04:24:58;;;;;;;;;4.00;4.00;;;;;19.09;38.99;101238.06;5018619;28;45334;-55
2023/04/26 04:27:30;;;;;;;;;5.00;3.00;;;;;19.05;39.10;101228.59;5019093;28;45375;-55
2023/04/26 04:29:56;;;;;;;;;4.25;4.25;;;;;19.10;39.08;101236.28;5018499;28;46213;-50
2023/04/26 04:32:22;;;;;;;;;4.75;4.00;;;;;19.09;38.73;101235.44;5018535;28;48884;-56
2023/04/26 04:34:48;;;;;;;;;3.00;3.00;;;;;19.09;38.89;101227.56;5017101;28;45332;-52
2023/04/26 04:37:13;;;;;;;;;7.50;4.50;;;;;19.05;38.82;101227.75;5018542;28;45434;-55
2023/04/26 04:39:39;;;;;;;;;6.00;5.00;;;;;19.08;38.84;101241.59;5018052;28;45893;-58
2023/04/26 04:42:04;;;;;;;;;5.25;4.50;;;;;19.08;39.05;101243.38;5016834;28;45509;-54
2023/04/26 04:44:30;;;;;;;;;3.50;3.00;;;;;19.05;39.01;101239.09;5018421;28;45377;-58
2023/04/26 04:46:55;;;;;;;;;5.00;4.00;;;;;19.07;39.09;101234.63;5017693;28;45496;-61
2023/04/26 04:49:22;;;;;;;;;5.25;4.00;;;;;19.04;39.54;101234.75;5018046;28;45572;-55
2023/04/26 04:51:47;;;;;;;;;6.25;6.25;;;;;19.07;40.42;101239.91;5018351;28;45401;-57
2023/04/26 04:54:15;;;;;;;;;6.50;5.00;;;;;19.06;40.10;101234.72;5017934;28;45484;-51
2023/04/26 04:56:41;;;;;;;;;5.00;5.00;;;;;19.04;40.08;101241.81;5018406;28;45571;-52
2023/04/26 04:59:07;;;;;;;;;5.00;5.00;;;;;19.00;40.41;101241.09;5018026;28;46244;-55
2023/04/26 05:01:33;;;;;;;;;6.50;5.75;;;;;18.99;40.61;101239.38;5017829;28;45973;-53
2023/04/26 05:03:59;;;;;;;;;5.75;4.25;;;;;18.97;41.07;101231.53;5018225;28;45313;-53
2023/04/26 05:06:26;;;;;;;;;5.00;5.00;;;;;18.94;41.05;101231.69;5018637;28;45548;-50
2023/04/26 05:08:51;;;;;;;;;6.25;6.00;;;;;18.93;41.42;101229.06;5017813;28;47178;-54
2023/04/26 05:11:16;;;;;;;;;8.33;6.67;;;;;18.91;40.99;101225.66;5017481;28;52211;-52
2023/04/26 05:13:42;;;;;;;;;5.00;5.00;;;;;18.89;41.18;101224.91;5017368;28;45321;-49
2023/04/26 05:16:07;;;;;;;;;6.00;5.00;;;;;18.81;40.38;101226.06;5018196;28;45525;-46
2023/04/26 05:18:32;;;;;;;;;5.67;5.67;;;;;18.73;40.56;101233.41;5016857;28;67585;-47
2023/04/26 05:20:58;;;;;;;;;6.00;6.00;;;;;18.65;40.92;101235.50;5018038;28;45323;-46
2023/04/26 05:23:23;;;;;;;;;6.50;6.00;;;;;18.60;40.59;101234.81;5016609;28;45270;-45
2023/04/26 05:25:49;;;;;;;;;9.25;7.25;;;;;18.58;40.62;101232.25;5017907;28;45301;-48
2023/04/26 05:28:15;;;;;;;;;7.00;5.00;;;;;18.59;40.59;101246.22;5017502;28;46675;-46
2023/04/26 05:30:41;;;;;;;;;8.75;5.00;;;;;18.60;40.34;101248.81;5016379;28;45245;-49
2023/04/26 05:33:09;;;;;;;;;6.50;6.00;;;;;18.61;40.09;101249.66;5017839;28;45334;-49
2023/04/26 05:35:35;;;;;;;;;7.50;5.25;;;;;18.54;39.61;101238.53;5018051;28;45474;-49
2023/04/26 05:38:00;;;;;;;;;8.75;7.00;;;;;18.59;39.60;101248.84;5017463;28;45338;-45
2023/04/26 05:40:25;;;;;;;;;5.75;5.00;;;;;18.53;38.79;101242.06;5017759;28;45275;-50
2023/04/26 05:42:51;;;;;;;;;8.25;6.00;;;;;18.55;38.55;101245.50;5017584;28;45431;-47
2023/04/26 05:45:16;;;;;;;;;7.25;6.25;;;;;18.60;39.33;101258.44;5017822;28;45285;-44
2023/04/26 05:47:41;;;;;;;;;6.00;6.00;;;;;18.59;38.68;101246.22;5017131;28;46804;-55
2023/04/26 05:50:07;;;;;;;;;6.00;5.50;;;;;18.51;39.10;101244.78;5016001;28;45410;-53
2023/04/26 05:52:33;;;;;;;;;6.75;6.00;;;;;18.58;38.99;101255.88;5017462;28;45320;-43
2023/04/26 05:55:01;;;;;;;;;6.00;5.00;;;;;18.59;38.52;101251.47;5017870;28;45513;-45
2023/04/26 05:57:26;;;;;;;;;6.50;5.25;;;;;18.55;38.33;101240.25;5017571;28;46496;-47
2023/04/26 05:59:51;;;;;;;;;6.50;5.00;;;;;18.54;38.70;101244.66;5017216;28;45693;-51
2023/04/26 06:02:16;;;;;;;;;7.00;7.00;;;;;18.58;38.18;101255.00;5017236;28;45280;-49
2023/04/26 06:04:42;;;;;;;;;6.00;6.00;;;;;18.52;37.75;101251.75;5016706;28;57281;-51
2023/04/26 06:07:07;;;;;;;;;8.00;6.67;;;;;18.49;38.21;101257.09;5016124;28;68771;-51
2023/04/26 06:09:32;;;;;;;;;8.00;6.67;;;;;18.43;37.90;101254.75;5016454;28;58117;-47
2023/04/26 06:11:58;;;;;;;;;7.00;5.50;;;;;18.41;37.79;101246.06;5017441;28;45455;-49
2023/04/26 06:14:23;;;;;;;;;4.75;4.75;;;;;18.45;37.77;101257.28;5017358;28;45541;-49
2023/04/26 06:16:49;;;;;;;;;7.67;6.00;;;;;18.45;37.71;101267.78;5016620;28;51209;-52
2023/04/26 06:19:14;;;;;;;;;8.00;7.00;;;;;18.44;38.16;101261.69;5016927;28;45494;-53
2023/04/26 06:21:40;;;;;;;;;9.00;7.50;;;;;18.41;37.58;101269.69;5017014;28;45485;-53
2023/04/26 06:24:05;;;;;;;;;8.00;6.00;;;;;18.42;37.76;101263.53;5015907;28;45656;-47
2023/04/26 06:26:31;;;;;;;;;8.00;7.75;;;;;18.42;37.11;101260.91;5017151;28;46077;-45
2023/04/26 06:28:56;;;;;;;;;4.00;4.00;;;;;18.43;37.76;101267.00;5015422;28;45387;-48
2023/04/26 06:31:22;;;;;;;;;8.50;8.50;;;;;18.40;37.71;101257.47;5016858;28;45403;-46
2023/04/26 06:33:47;;;;;;;;;6.75;6.25;;;;;18.41;36.98;101253.09;5015800;28;45347;-53
2023/04/26 06:36:13;;;;;;;;;7.50;6.50;;;;;18.43;37.34;101249.50;5016564;28;46281;-52
2023/04/26 06:38:38;;;;;;;;;8.25;8.00;;;;;18.42;37.42;101252.16;5016599;28;45323;-53
2023/04/26 06:41:03;;;;;;;;;7.50;6.25;;;;;18.42;37.49;101253.03;5017146;28;45225;-54
2023/04/26 06:43:29;;;;;;;;;7.00;7.00;;;;;18.40;37.23;101246.97;5017051;28;45585;-51
2023/04/26 06:45:54;;;;;;;;;7.75;7.00;;;;;18.37;37.42;101253.22;5016463;28;46845;-51
2023/04/26 06:48:20;;;;;;;;;9.00;5.00;;;;;18.42;37.25;101254.78;5016286;28;45358;-48
2023/04/26 06:50:45;;;;;;;;;6.67;5.00;;;;;18.43;37.35;101251.25;5015718;28;65571;-52
2023/04/26 06:53:10;;;;;;;;;9.25;6.50;;;;;18.42;37.25;101253.03;5016572;28;45570;-52
2023/04/26 06:55:36;;;;;;;;;7.50;5.75;;;;;18.43;37.42;101251.25;5016323;28;45503;-48
2023/04/26 06:58:01;;;;;;;;;8.25;6.50;;;;;18.44;36.96;101258.19;5016630;28;45260;-56
2023/04/26 07:00:27;;;;;;;;;5.75;5.00;;;;;18.44;37.61;101263.44;5016457;28;45230;-52
2023/04/26 07:02:52;;;;;;;;;6.25;6.25;;;;;18.45;38.09;101266.03;5016339;28;45455;-51
2023/04/26 07:05:18;;;;;;;;;6.25;6.00;;;;;18.48;38.14;101265.88;5016091;28;46097;-55
2023/04/26 07:07:43;;;;;;;;;6.75;6.75;;;;;18.49;38.14;101266.75;5015969;28;45313;-51
2023/04/26 07:10:08;;;;;;;;;9.75;5.50;;;;;18.52;38.08;101267.50;5016302;28;45355;-55
2023/04/26 07:12:34;;;;;;;;;9.25;6.00;;;;;18.53;37.99;101256.06;5016616;28;45609;-51
2023/04/26 07:15:00;;;;;;;;;6.25;5.75;;;;;18.56;38.16;101262.97;5014801;28;46053;-51
2023/04/26 07:17:25;;;;;;;;;8.25;5.75;;;;;18.59;38.42;101267.22;5016077;28;45336;-53
2023/04/26 07:19:51;;;;;;;;;5.00;5.00;;;;;18.46;37.84;101240.63;5016216;28;45378;-54
2023/04/26 07:22:16;;;;;;;;;6.50;6.00;;;;;18.62;38.16;101272.38;5016151;28;45304;-49
2023/04/26 07:24:41;;;;;;;;;6.25;5.25;;;;;18.64;38.11;101278.41;5015825;28;46809;-55
2023/04/26 07:27:07;;;;;;;;;5.67;5.67;;;;;18.60;37.67;101272.44;5015316;28;64580;-50
2023/04/26 07:29:32;;;;;;;;;4.00;4.00;;;;;18.65;38.43;101277.50;5015979;28;46203;-49
2023/04/26 07:31:58;;;;;;;;;5.25;5.00;;;;;18.54;38.14;101254.28;5016238;28;45269;-51
2023/04/26 07:34:24;;;;;;;;;7.75;5.00;;;;;18.69;38.32;101273.81;5015746;28;45290;-53
2023/04/26 07:36:49;;;;;;;;;5.50;5.50;;;;;18.71;38.77;101261.47;5018850;28;45229;-52
2023/04/26 07:39:15;;;;;;;;;7.50;6.00;;;;;18.73;38.43;101264.91;5019347;28;45227;-48
2023/04/26 07:41:40;;;;;;;;;7.75;6.00;;;;;18.73;37.77;101254.41;5019655;28;45277;-52
2023/04/26 07:44:06;;;;;;;;;10.00;7.25;;;;;18.73;37.34;101248.31;5019595;28;46918;-49
2023/04/26 07:46:33;;;;;;;;;9.75;7.00;;;;;18.73;37.96;101248.31;5019326;28;45397;-46
2023/04/26 07:48:58;;;;;;;;;10.00;6.00;;;;;18.69;37.87;101240.56;5019202;28;45394;-46
2023/04/26 07:51:24;;;;;;;;;7.33;7.00;;;;;18.70;37.50;101238.78;5017324;28;45309;-54
2023/04/26 07:53:49;;;;;;;;;6.25;6.25;;;;;18.69;37.33;101237.06;5017444;28;46078;-50
2023/04/26 07:56:14;;;;;;;;;8.50;8.50;;;;;18.69;37.84;101242.31;5018554;28;45398;-54
2023/04/26 07:58:40;;;;;;;;;7.50;7.50;;;;;18.66;37.33;101234.56;5017713;28;57488;-53
2023/04/26 08:01:06;;;;;;;;;8.75;7.75;;;;;18.69;37.49;101240.56;5018853;28;45425;-52
2023/04/26 08:03:31;;;;;;;;;5.50;5.50;;;;;18.72;37.75;101246.59;5016896;28;47369;-52
2023/04/26 08:06:00;;;;;;;;;7.00;7.00;;;;;18.72;37.64;101246.59;5018314;28;45315;-46
2023/04/26 08:08:26;;;;;;;;;7.00;6.00;;;;;18.70;37.86;101242.25;5018296;28;45333;-56
2023/04/26 08:10:52;;;;;;;;;7.50;6.25;;;;;18.72;37.62;101242.19;5018307;28;45304;-50
2023/04/26 08:13:17;;;;;;;;;7.50;6.00;;;;;18.72;37.68;101247.44;5018008;28;47112;-52
2023/04/26 08:15:42;;;;;;;;;5.50;5.50;;;;;18.71;37.46;101248.34;5033497;28;45331;-50
2023/04/26 08:18:08;;;;;;;;;6.50;6.50;;;;;18.69;37.60;101244.94;5018601;28;45428;-50
2023/04/26 08:20:33;;;;;;;;;6.25;6.00;;;;;18.72;37.57;101244.81;5018105;28;45652;-51
2023/04/26 08:22:59;;;;;;;;;6.00;5.00;;;;;18.71;37.11;101245.72;5017503;28;55790;-53
2023/04/26 08:25:24;;;;;;;;;8.25;6.00;;;;;18.69;37.09;101242.31;5018040;28;45339;-54
2023/04/26 08:27:50;;;;;;;;;8.00;6.00;;;;;18.68;37.60;101236.22;5018230;28;45482;-51
2023/04/26 08:30:16;;;;;;;;;5.25;5.25;;;;;18.69;37.51;101237.94;5018166;28;45641;-53
2023/04/26 08:32:41;;;;;;;;;7.75;6.00;;;;;18.63;37.21;101217.16;5017779;28;47712;-52
